sensor_id;sensor_type;location;lat;lon;timestamp;pressure;altitude;pressure_sealevel;temperature
60936;BMP280;46804;51.786;19.520;2023-08-07T00:02:41;157692.34;;;13.69
60936;BMP280;46804;51.786;19.520;2023-08-07T00:06:41;157701.38;;;13.73
60936;BMP280;46804;51.786;19.520;2023-08-07T00:10:42;157676.91;;;13.63
60936;BMP280;46804;51.786;19.520;2023-08-07T00:14:42;157685.91;;;13.67
60936;BMP280;46804;51.786;19.520;2023-08-07T00:18:43;157687.19;;;13.67
60936;BMP280;46804;51.786;19.520;2023-08-07T00:22:43;157676.91;;;13.63
60936;BMP280;46804;51.786;19.520;2023-08-07T00:26:44;157684.63;;;13.66
60936;BMP280;46804;51.786;19.520;2023-08-07T00:30:45;157664.03;;;13.58
60936;BMP280;46804;51.786;19.520;2023-08-07T00:34:45;157665.31;;;13.59
60936;BMP280;46804;51.786;19.520;2023-08-07T00:38:46;157682.03;;;13.65
60936;BMP280;46804;51.786;19.520;2023-08-07T00:42:46;157667.91;;;13.60
60936;BMP280;46804;51.786;19.520;2023-08-07T00:46:47;157658.91;;;13.57
60936;BMP280;46804;51.786;19.520;2023-08-07T00:50:48;157658.91;;;13.57
60936;BMP280;46804;51.786;19.520;2023-08-07T00:54:49;157643.50;;;13.51
60936;BMP280;46804;51.786;19.520;2023-08-07T00:58:50;157664.03;;;13.58
60936;BMP280;46804;51.786;19.520;2023-08-07T01:02:51;157656.34;;;13.56
60936;BMP280;46804;51.786;19.520;2023-08-07T01:06:52;157657.63;;;13.56
60936;BMP280;46804;51.786;19.520;2023-08-07T01:11:20;157656.34;;;13.56
60936;BMP280;46804;51.786;19.520;2023-08-07T01:15:25;157646.03;;;13.52
60936;BMP280;46804;51.786;19.520;2023-08-07T01:19:31;157635.75;;;13.48
60936;BMP280;46804;51.786;19.520;2023-08-07T01:23:31;157637.03;;;13.48
60936;BMP280;46804;51.786;19.520;2023-08-07T01:27:37;157628.03;;;13.45
60936;BMP280;46804;51.786;19.520;2023-08-07T01:31:40;157629.31;;;13.45
60936;BMP280;46804;51.786;19.520;2023-08-07T01:35:46;157602.31;;;13.35
60936;BMP280;46804;51.786;19.520;2023-08-07T01:39:48;157611.31;;;13.38
60936;BMP280;46804;51.786;19.520;2023-08-07T01:43:50;157617.75;;;13.41
60936;BMP280;46804;51.786;19.520;2023-08-07T01:47:51;157640.91;;;13.50
60936;BMP280;46804;51.786;19.520;2023-08-07T01:51:52;157634.47;;;13.47
60936;BMP280;46804;51.786;19.520;2023-08-07T01:55:53;157631.88;;;13.46
60936;BMP280;46804;51.786;19.520;2023-08-07T01:59:54;157626.78;;;13.44
60936;BMP280;46804;51.786;19.520;2023-08-07T02:03:54;157631.88;;;13.46
60936;BMP280;46804;51.786;19.520;2023-08-07T02:07:55;157628.03;;;13.45
60936;BMP280;46804;51.786;19.520;2023-08-07T02:11:57;157626.78;;;13.44
60936;BMP280;46804;51.786;19.520;2023-08-07T02:15:58;157631.88;;;13.46
60936;BMP280;46804;51.786;19.520;2023-08-07T02:19:58;157622.91;;;13.43
60936;BMP280;46804;51.786;19.520;2023-08-07T02:23:59;157621.63;;;13.42
60936;BMP280;46804;51.786;19.520;2023-08-07T02:28:00;157616.47;;;13.40
60936;BMP280;46804;51.786;19.520;2023-08-07T02:32:04;157620.31;;;13.42
60936;BMP280;46804;51.786;19.520;2023-08-07T02:36:05;157628.03;;;13.45
60936;BMP280;46804;51.786;19.520;2023-08-07T02:40:06;157616.47;;;13.40
60936;BMP280;46804;51.786;19.520;2023-08-07T02:44:06;157628.03;;;13.45
60936;BMP280;46804;51.786;19.520;2023-08-07T02:48:07;157633.19;;;13.47
60936;BMP280;46804;51.786;19.520;2023-08-07T02:52:08;157635.75;;;13.48
60936;BMP280;46804;51.786;19.520;2023-08-07T02:56:08;157651.19;;;13.54
60936;BMP280;46804;51.786;19.520;2023-08-07T03:00:10;157644.78;;;13.51
60936;BMP280;46804;51.786;19.520;2023-08-07T03:04:11;157630.59;;;13.46
60936;BMP280;46804;51.786;19.520;2023-08-07T03:08:12;157626.78;;;13.44
60936;BMP280;46804;51.786;19.520;2023-08-07T03:12:13;157620.31;;;13.42
60936;BMP280;46804;51.786;19.520;2023-08-07T03:16:13;157631.88;;;13.46
60936;BMP280;46804;51.786;19.520;2023-08-07T03:20:14;157634.47;;;13.47
60936;BMP280;46804;51.786;19.520;2023-08-07T03:24:15;157624.19;;;13.43
60936;BMP280;46804;51.786;19.520;2023-08-07T03:28:16;157633.19;;;13.47
60936;BMP280;46804;51.786;19.520;2023-08-07T03:32:17;157630.59;;;13.46
60936;BMP280;46804;51.786;19.520;2023-08-07T03:36:17;157638.34;;;13.49
60936;BMP280;46804;51.786;19.520;2023-08-07T03:40:18;157640.91;;;13.50
60936;BMP280;46804;51.786;19.520;2023-08-07T03:44:19;157630.59;;;13.46
60936;BMP280;46804;51.786;19.520;2023-08-07T03:48:19;157642.16;;;13.50
60936;BMP280;46804;51.786;19.520;2023-08-07T03:52:19;157635.75;;;13.48
60936;BMP280;46804;51.786;19.520;2023-08-07T03:56:21;157635.75;;;13.48
60936;BMP280;46804;51.786;19.520;2023-08-07T04:00:21;157642.16;;;13.50
60936;BMP280;46804;51.786;19.520;2023-08-07T04:04:22;157638.34;;;13.49
60936;BMP280;46804;51.786;19.520;2023-08-07T04:08:23;157639.63;;;13.49
60936;BMP280;46804;51.786;19.520;2023-08-07T04:12:24;157630.59;;;13.46
60936;BMP280;46804;51.786;19.520;2023-08-07T04:16:24;157638.34;;;13.49
60936;BMP280;46804;51.786;19.520;2023-08-07T04:20:25;157640.91;;;13.50
60936;BMP280;46804;51.786;19.520;2023-08-07T04:24:26;157653.75;;;13.55
60936;BMP280;46804;51.786;19.520;2023-08-07T04:28:29;157638.34;;;13.49
60936;BMP280;46804;51.786;19.520;2023-08-07T04:32:30;157642.16;;;13.50
60936;BMP280;46804;51.786;19.520;2023-08-07T04:36:31;157642.16;;;13.50
60936;BMP280;46804;51.786;19.520;2023-08-07T04:40:31;157643.50;;;13.51
60936;BMP280;46804;51.786;19.520;2023-08-07T04:44:32;157635.75;;;13.48
60936;BMP280;46804;51.786;19.520;2023-08-07T04:48:33;157653.75;;;13.55
60936;BMP280;46804;51.786;19.520;2023-08-07T04:52:34;157661.50;;;13.57
60936;BMP280;46804;51.786;19.520;2023-08-07T04:56:34;157684.63;;;13.66
60936;BMP280;46804;51.786;19.520;2023-08-07T05:00:35;157705.19;;;13.74
60936;BMP280;46804;51.786;19.520;2023-08-07T05:04:36;157697.50;;;13.71
60936;BMP280;46804;51.786;19.520;2023-08-07T05:08:37;157700.03;;;13.72
60936;BMP280;46804;51.786;19.520;2023-08-07T05:12:37;157700.03;;;13.72
60936;BMP280;46804;51.786;19.520;2023-08-07T05:16:38;157742.50;;;13.89
60936;BMP280;46804;51.786;19.520;2023-08-07T05:20:39;157809.47;;;14.14
60936;BMP280;46804;51.786;19.520;2023-08-07T05:24:39;157842.94;;;14.27
60936;BMP280;46804;51.786;19.520;2023-08-07T05:28:40;157854.53;;;14.31
60936;BMP280;46804;51.786;19.520;2023-08-07T05:32:41;157857.06;;;14.32
60936;BMP280;46804;51.786;19.520;2023-08-07T05:36:41;157884.09;;;14.43
60936;BMP280;46804;51.786;19.520;2023-08-07T05:40:42;157918.84;;;14.56
60936;BMP280;46804;51.786;19.520;2023-08-07T05:44:42;157956.19;;;14.70
60936;BMP280;46804;51.786;19.520;2023-08-07T05:48:43;157960.03;;;14.72
60936;BMP280;46804;51.786;19.520;2023-08-07T05:52:44;157990.94;;;14.84
60936;BMP280;46804;51.786;19.520;2023-08-07T05:56:44;157971.63;;;14.76
60936;BMP280;46804;51.786;19.520;2023-08-07T06:00:45;157976.75;;;14.78
60936;BMP280;46804;51.786;19.520;2023-08-07T06:04:46;158007.69;;;14.90
60936;BMP280;46804;51.786;19.520;2023-08-07T06:08:47;158034.69;;;15.00
60936;BMP280;46804;51.786;19.520;2023-08-07T06:12:48;158050.16;;;15.06
60936;BMP280;46804;51.786;19.520;2023-08-07T06:16:49;158117.16;;;15.32
60936;BMP280;46804;51.786;19.520;2023-08-07T06:20:49;158245.97;;;15.81
60936;BMP280;46804;51.786;19.520;2023-08-07T06:24:50;158207.34;;;15.66
60936;BMP280;46804;51.786;19.520;2023-08-07T06:28:51;158284.59;;;15.96
60936;BMP280;46804;51.786;19.520;2023-08-07T06:32:52;158287.19;;;15.97
60936;BMP280;46804;51.786;19.520;2023-08-07T06:36:53;158337.50;;;16.16
60936;BMP280;46804;51.786;19.520;2023-08-07T06:40:53;158391.59;;;16.37
60936;BMP280;46804;51.786;19.520;2023-08-07T06:44:54;158429.00;;;16.51
60936;BMP280;46804;51.786;19.520;2023-08-07T06:48:54;158417.41;;;16.47
60936;BMP280;46804;51.786;19.520;2023-08-07T06:52:55;158398.03;;;16.39
60936;BMP280;46804;51.786;19.520;2023-08-07T06:56:56;158426.38;;;16.50
60936;BMP280;46804;51.786;19.520;2023-08-07T07:00:57;158401.91;;;16.41
60936;BMP280;46804;51.786;19.520;2023-08-07T07:04:57;158453.47;;;16.61
60936;BMP280;46804;51.786;19.520;2023-08-07T07:08:58;158431.53;;;16.52
60936;BMP280;46804;51.786;19.520;2023-08-07T07:12:59;158516.63;;;16.85
60936;BMP280;46804;51.786;19.520;2023-08-07T07:17:00;158538.53;;;16.93
60936;BMP280;46804;51.786;19.520;2023-08-07T07:21:01;158594.06;;;17.14
60936;BMP280;46804;51.786;19.520;2023-08-07T07:25:02;158657.22;;;17.38
60936;BMP280;46804;51.786;19.520;2023-08-07T07:29:02;158759.13;;;17.77
60936;BMP280;46804;51.786;19.520;2023-08-07T07:33:03;158733.31;;;17.67
60936;BMP280;46804;51.786;19.520;2023-08-07T07:37:04;158675.28;;;17.45
60936;BMP280;46804;51.786;19.520;2023-08-07T07:41:04;158677.84;;;17.46
60936;BMP280;46804;51.786;19.520;2023-08-07T07:45:08;158748.81;;;17.73
60936;BMP280;46804;51.786;19.520;2023-08-07T07:49:09;158800.41;;;17.93
60936;BMP280;46804;51.786;19.520;2023-08-07T07:53:09;159005.63;;;18.71
60936;BMP280;46804;51.786;19.520;2023-08-07T07:57:10;159066.34;;;18.95
60936;BMP280;46804;51.786;19.520;2023-08-07T08:01:11;159089.59;;;19.04
60936;BMP280;46804;51.786;19.520;2023-08-07T08:05:11;159120.56;;;19.15
60936;BMP280;46804;51.786;19.520;2023-08-07T08:09:12;159189.00;;;19.41
60936;BMP280;46804;51.786;19.520;2023-08-07T08:13:16;159243.25;;;19.62
60936;BMP280;46804;51.786;19.520;2023-08-07T08:17:17;159265.22;;;19.71
60936;BMP280;46804;51.786;19.520;2023-08-07T08:21:18;159360.81;;;20.07
60936;BMP280;46804;51.786;19.520;2023-08-07T08:25:18;159477.13;;;20.51
60936;BMP280;46804;51.786;19.520;2023-08-07T08:29:19;159360.81;;;20.07
60936;BMP280;46804;51.786;19.520;2023-08-07T08:33:20;159676.25;;;21.27
60936;BMP280;46804;51.786;19.520;2023-08-07T08:37:20;159628.41;;;21.09
60936;BMP280;46804;51.786;19.520;2023-08-07T08:41:22;159526.28;;;20.70
60936;BMP280;46804;51.786;19.520;2023-08-07T08:45:25;159403.50;;;20.23
60936;BMP280;46804;51.786;19.520;2023-08-07T08:49:33;159403.50;;;20.23
60936;BMP280;46804;51.786;19.520;2023-08-07T08:53:35;159571.50;;;20.87
60936;BMP280;46804;51.786;19.520;2023-08-07T08:57:37;159637.47;;;21.12
60936;BMP280;46804;51.786;19.520;2023-08-07T09:01:39;159684.00;;;21.30
60936;BMP280;46804;51.786;19.520;2023-08-07T09:05:40;159684.00;;;21.30
60936;BMP280;46804;51.786;19.520;2023-08-07T09:09:42;159761.66;;;21.60
60936;BMP280;46804;51.786;19.520;2023-08-07T09:13:47;159898.81;;;22.12
60936;BMP280;46804;51.786;19.520;2023-08-07T09:17:49;159947.94;;;22.31
60936;BMP280;46804;51.786;19.520;2023-08-07T09:21:50;160020.41;;;22.58
60936;BMP280;46804;51.786;19.520;2023-08-07T09:26:01;160143.38;;;23.05
60936;BMP280;46804;51.786;19.520;2023-08-07T09:30:02;160078.63;;;22.81
60936;BMP280;46804;51.786;19.520;2023-08-07T09:34:03;160140.81;;;23.04
60936;BMP280;46804;51.786;19.520;2023-08-07T09:38:07;160195.16;;;23.25
60936;BMP280;46804;51.786;19.520;2023-08-07T09:42:16;160129.16;;;23.00
60936;BMP280;46804;51.786;19.520;2023-08-07T09:46:17;160122.69;;;22.97
60936;BMP280;46804;51.786;19.520;2023-08-07T09:50:18;160025.59;;;22.60
60936;BMP280;46804;51.786;19.520;2023-08-07T09:54:18;159913.00;;;22.17
60936;BMP280;46804;51.786;19.520;2023-08-07T09:58:19;159762.94;;;21.60
60936;BMP280;46804;51.786;19.520;2023-08-07T10:02:20;159721.56;;;21.45
60936;BMP280;46804;51.786;19.520;2023-08-07T10:06:22;160164.09;;;23.13
60936;BMP280;46804;51.786;19.520;2023-08-07T10:10:23;159960.84;;;22.36
60936;BMP280;46804;51.786;19.520;2023-08-07T10:14:26;159792.66;;;21.72
60936;BMP280;46804;51.786;19.520;2023-08-07T10:18:27;159929.81;;;22.24
60936;BMP280;46804;51.786;19.520;2023-08-07T10:22:30;159957.00;;;22.34
60936;BMP280;46804;51.786;19.520;2023-08-07T10:26:32;159894.84;;;22.11
60936;BMP280;46804;51.786;19.520;2023-08-07T10:30:34;159819.84;;;21.82
60936;BMP280;46804;51.786;19.520;2023-08-07T10:34:36;159991.94;;;22.48
60936;BMP280;46804;51.786;19.520;2023-08-07T10:38:37;159951.84;;;22.32
60936;BMP280;46804;51.786;19.520;2023-08-07T10:42:58;160253.44;;;23.47
60936;BMP280;46804;51.786;19.520;2023-08-07T10:47:00;160538.44;;;24.55
60936;BMP280;46804;51.786;19.520;2023-08-07T10:51:04;160509.94;;;24.45
60936;BMP280;46804;51.786;19.520;2023-08-07T10:55:13;160644.75;;;24.96
60936;BMP280;46804;51.786;19.520;2023-08-07T10:59:14;160598.06;;;24.78
60936;BMP280;46804;51.786;19.520;2023-08-07T11:03:26;160474.97;;;24.31
60936;BMP280;46804;51.786;19.520;2023-08-07T11:07:29;160611.00;;;24.83
60936;BMP280;46804;51.786;19.520;2023-08-07T11:15:40;161058.41;;;26.53
60936;BMP280;46804;51.786;19.520;2023-08-07T11:19:41;161203.81;;;27.08
60936;BMP280;46804;51.786;19.520;2023-08-07T11:23:42;161199.91;;;27.07
60936;BMP280;46804;51.786;19.520;2023-08-07T11:27:44;160774.38;;;25.45
60936;BMP280;46804;51.786;19.520;2023-08-07T11:31:45;160865.19;;;25.80
60936;BMP280;46804;51.786;19.520;2023-08-07T11:35:47;160678.47;;;25.09
60936;BMP280;46804;51.786;19.520;2023-08-07T11:39:48;160717.34;;;25.24
60936;BMP280;46804;51.786;19.520;2023-08-07T11:43:48;160659.03;;;25.01
60936;BMP280;46804;51.786;19.520;2023-08-07T11:47:49;160809.44;;;25.59
60936;BMP280;46804;51.786;19.520;2023-08-07T11:51:50;160681.03;;;25.10
60936;BMP280;46804;51.786;19.520;2023-08-07T11:55:56;160965.06;;;26.18
60936;BMP280;46804;51.786;19.520;2023-08-07T11:59:58;161002.69;;;26.32
60936;BMP280;46804;51.786;19.520;2023-08-07T12:08:07;160888.53;;;25.89
60936;BMP280;46804;51.786;19.520;2023-08-07T12:12:07;160569.56;;;24.67
60936;BMP280;46804;51.786;19.520;2023-08-07T12:16:08;160323.41;;;23.74
60936;BMP280;46804;51.786;19.520;2023-08-07T12:20:09;160059.25;;;22.73
60936;BMP280;46804;51.786;19.520;2023-08-07T12:24:12;159901.38;;;22.13
60936;BMP280;46804;51.786;19.520;2023-08-07T12:28:13;160079.91;;;22.81
60936;BMP280;46804;51.786;19.520;2023-08-07T12:32:14;160447.75;;;24.21
60936;BMP280;46804;51.786;19.520;2023-08-07T12:36:14;160480.16;;;24.33
60936;BMP280;46804;51.786;19.520;2023-08-07T12:40:15;160675.84;;;25.08
60936;BMP280;46804;51.786;19.520;2023-08-07T12:44:20;160004.88;;;22.52
60936;BMP280;46804;51.786;19.520;2023-08-07T12:48:20;159972.50;;;22.40
60936;BMP280;46804;51.786;19.520;2023-08-07T12:52:21;159989.31;;;22.47
60936;BMP280;46804;51.786;19.520;2023-08-07T12:56:21;160131.72;;;23.01
60936;BMP280;46804;51.786;19.520;2023-08-07T13:00:22;159990.66;;;22.47
60936;BMP280;46804;51.786;19.520;2023-08-07T13:04:24;160193.88;;;23.24
60936;BMP280;46804;51.786;19.520;2023-08-07T13:08:24;160507.38;;;24.44
60936;BMP280;46804;51.786;19.520;2023-08-07T13:12:25;160517.75;;;24.48
60936;BMP280;46804;51.786;19.520;2023-08-07T13:16:26;160259.91;;;23.50
60936;BMP280;46804;51.786;19.520;2023-08-07T13:20:26;160792.53;;;25.52
60936;BMP280;46804;51.786;19.520;2023-08-07T13:24:27;160741.97;;;25.33
60936;BMP280;46804;51.786;19.520;2023-08-07T13:28:27;160639.56;;;24.94
60936;BMP280;46804;51.786;19.520;2023-08-07T13:32:28;160804.25;;;25.57
60936;BMP280;46804;51.786;19.520;2023-08-07T13:36:29;160420.53;;;24.11
60936;BMP280;46804;51.786;19.520;2023-08-07T13:40:30;160631.81;;;24.91
60936;BMP280;46804;51.786;19.520;2023-08-07T13:44:31;160576.03;;;24.70
60936;BMP280;46804;51.786;19.520;2023-08-07T13:48:32;160537.16;;;24.55
60936;BMP280;46804;51.786;19.520;2023-08-07T13:52:34;160236.63;;;23.41
60936;BMP280;46804;51.786;19.520;2023-08-07T13:56:35;160050.16;;;22.70
60936;BMP280;46804;51.786;19.520;2023-08-07T14:00:35;159986.75;;;22.46
60936;BMP280;46804;51.786;19.520;2023-08-07T14:04:36;159976.41;;;22.42
60936;BMP280;46804;51.786;19.520;2023-08-07T14:08:37;159893.56;;;22.10
60936;BMP280;46804;51.786;19.520;2023-08-07T14:12:37;160046.25;;;22.68
60936;BMP280;46804;51.786;19.520;2023-08-07T14:16:38;160092.94;;;22.86
60936;BMP280;46804;51.786;19.520;2023-08-07T14:20:39;160099.41;;;22.88
60936;BMP280;46804;51.786;19.520;2023-08-07T14:24:39;160178.31;;;23.18
60936;BMP280;46804;51.786;19.520;2023-08-07T14:28:40;160116.22;;;22.95
60936;BMP280;46804;51.786;19.520;2023-08-07T14:32:41;160301.38;;;23.65
60936;BMP280;46804;51.786;19.520;2023-08-07T14:36:43;160131.72;;;23.01
60936;BMP280;46804;51.786;19.520;2023-08-07T14:40:44;160069.56;;;22.77
60936;BMP280;46804;51.786;19.520;2023-08-07T14:44:44;160162.81;;;23.13
60936;BMP280;46804;51.786;19.520;2023-08-07T14:48:45;160000.97;;;22.51
60936;BMP280;46804;51.786;19.520;2023-08-07T14:52:45;159896.13;;;22.11
60936;BMP280;46804;51.786;19.520;2023-08-07T14:56:46;159641.31;;;21.14
60936;BMP280;46804;51.786;19.520;2023-08-07T15:00:47;159678.81;;;21.28
60936;BMP280;46804;51.786;19.520;2023-08-07T15:04:49;159497.84;;;20.59
60936;BMP280;46804;51.786;19.520;2023-08-07T15:08:50;159475.81;;;20.51
60936;BMP280;46804;51.786;19.520;2023-08-07T15:12:51;159395.69;;;20.20
60936;BMP280;46804;51.786;19.520;2023-08-07T15:16:51;159332.41;;;19.96
60936;BMP280;46804;51.786;19.520;2023-08-07T15:20:52;159337.56;;;19.98
60936;BMP280;46804;51.786;19.520;2023-08-07T15:24:53;159307.88;;;19.87
60936;BMP280;46804;51.786;19.520;2023-08-07T15:28:53;159324.66;;;19.93
60936;BMP280;46804;51.786;19.520;2023-08-07T15:32:54;159275.50;;;19.74
60936;BMP280;46804;51.786;19.520;2023-08-07T15:36:55;159207.06;;;19.48
60936;BMP280;46804;51.786;19.520;2023-08-07T15:40:56;159099.94;;;19.07
60936;BMP280;46804;51.786;19.520;2023-08-07T15:44:56;159119.28;;;19.15
60936;BMP280;46804;51.786;19.520;2023-08-07T15:48:56;159097.31;;;19.06
60936;BMP280;46804;51.786;19.520;2023-08-07T15:52:57;158924.31;;;18.40
60936;BMP280;46804;51.786;19.520;2023-08-07T15:56:58;158903.66;;;18.33
60936;BMP280;46804;51.786;19.520;2023-08-07T16:00:59;158849.50;;;18.12
60936;BMP280;46804;51.786;19.520;2023-08-07T16:04:59;158848.16;;;18.11
60936;BMP280;46804;51.786;19.520;2023-08-07T16:09:00;158806.84;;;17.96
60936;BMP280;46804;51.786;19.520;2023-08-07T16:13:01;158728.13;;;17.66
60936;BMP280;46804;51.786;19.520;2023-08-07T16:17:01;158762.97;;;17.79
60936;BMP280;46804;51.786;19.520;2023-08-07T16:21:02;158806.84;;;17.96
60936;BMP280;46804;51.786;19.520;2023-08-07T16:25:03;158792.66;;;17.90
60936;BMP280;46804;51.786;19.520;2023-08-07T16:29:04;158790.06;;;17.89
60936;BMP280;46804;51.786;19.520;2023-08-07T16:33:05;158799.13;;;17.93
60936;BMP280;46804;51.786;19.520;2023-08-07T16:37:06;158757.78;;;17.77
60936;BMP280;46804;51.786;19.520;2023-08-07T16:41:06;158677.84;;;17.46
60936;BMP280;46804;51.786;19.520;2023-08-07T16:45:07;158702.38;;;17.56
60936;BMP280;46804;51.786;19.520;2023-08-07T16:49:08;158679.16;;;17.47
60936;BMP280;46804;51.786;19.520;2023-08-07T16:53:09;158627.59;;;17.27
60936;BMP280;46804;51.786;19.520;2023-08-07T16:57:10;158626.25;;;17.27
60936;BMP280;46804;51.786;19.520;2023-08-07T17:01:11;158599.22;;;17.16
60936;BMP280;46804;51.786;19.520;2023-08-07T17:05:12;158536.00;;;16.92
60936;BMP280;46804;51.786;19.520;2023-08-07T17:09:13;158552.72;;;16.98
60936;BMP280;46804;51.786;19.520;2023-08-07T17:13:13;158590.13;;;17.13
60936;BMP280;46804;51.786;19.520;2023-08-07T17:17:14;158578.50;;;17.08
60936;BMP280;46804;51.786;19.520;2023-08-07T17:21:15;158521.78;;;16.87
60936;BMP280;46804;51.786;19.520;2023-08-07T17:25:16;158510.19;;;16.82
60936;BMP280;46804;51.786;19.520;2023-08-07T17:29:16;158565.63;;;17.03
60936;BMP280;46804;51.786;19.520;2023-08-07T17:33:17;158548.88;;;16.97
60936;BMP280;46804;51.786;19.520;2023-08-07T17:37:18;158529.50;;;16.90
60936;BMP280;46804;51.786;19.520;2023-08-07T17:41:18;158490.88;;;16.75
60936;BMP280;46804;51.786;19.520;2023-08-07T17:45:21;158479.28;;;16.70
60936;BMP280;46804;51.786;19.520;2023-08-07T17:49:22;158427.66;;;16.51
60936;BMP280;46804;51.786;19.520;2023-08-07T17:53:22;158367.13;;;16.28
60936;BMP280;46804;51.786;19.520;2023-08-07T17:57:23;158309.09;;;16.05
60936;BMP280;46804;51.786;19.520;2023-08-07T18:01:24;158261.41;;;15.87
60936;BMP280;46804;51.786;19.520;2023-08-07T18:05:24;158218.91;;;15.71
60936;BMP280;46804;51.786;19.520;2023-08-07T18:09:25;158144.22;;;15.42
60936;BMP280;46804;51.786;19.520;2023-08-07T18:13:26;158096.53;;;15.24
60936;BMP280;46804;51.786;19.520;2023-08-07T18:17:27;158099.16;;;15.25
60936;BMP280;46804;51.786;19.520;2023-08-07T18:21:30;158075.97;;;15.16
60936;BMP280;46804;51.786;19.520;2023-08-07T18:25:30;158045.00;;;15.04
60936;BMP280;46804;51.786;19.520;2023-08-07T18:29:31;158028.25;;;14.98
60936;BMP280;46804;51.786;19.520;2023-08-07T18:33:32;158016.66;;;14.93
60936;BMP280;46804;51.786;19.520;2023-08-07T18:37:34;158023.09;;;14.96
60936;BMP280;46804;51.786;19.520;2023-08-07T18:41:34;157994.78;;;14.85
60936;BMP280;46804;51.786;19.520;2023-08-07T18:45:35;157993.50;;;14.85
60936;BMP280;46804;51.786;19.520;2023-08-07T18:49:36;157954.88;;;14.70
60936;BMP280;46804;51.786;19.520;2023-08-07T18:53:37;157939.47;;;14.64
60936;BMP280;46804;51.786;19.520;2023-08-07T18:57:39;157927.88;;;14.60
60936;BMP280;46804;51.786;19.520;2023-08-07T19:01:41;157939.47;;;14.64
60936;BMP280;46804;51.786;19.520;2023-08-07T19:05:44;157932.97;;;14.61
60936;BMP280;46804;51.786;19.520;2023-08-07T19:09:45;157956.19;;;14.70
60936;BMP280;46804;51.786;19.520;2023-08-07T19:13:46;157983.19;;;14.81
60936;BMP280;46804;51.786;19.520;2023-08-07T19:17:47;157936.88;;;14.63
60936;BMP280;46804;51.786;19.520;2023-08-07T19:21:48;157925.28;;;14.59
60936;BMP280;46804;51.786;19.520;2023-08-07T19:25:49;157903.38;;;14.50
60936;BMP280;46804;51.786;19.520;2023-08-07T19:29:50;157904.72;;;14.51
60936;BMP280;46804;51.786;19.520;2023-08-07T19:33:50;157924.00;;;14.58
60936;BMP280;46804;51.786;19.520;2023-08-07T19:37:51;157926.56;;;14.59
60936;BMP280;46804;51.786;19.520;2023-08-07T19:41:52;157917.56;;;14.56
60936;BMP280;46804;51.786;19.520;2023-08-07T19:45:54;157916.31;;;14.55
60936;BMP280;46804;51.786;19.520;2023-08-07T19:49:54;157932.97;;;14.61
60936;BMP280;46804;51.786;19.520;2023-08-07T19:53:55;157938.13;;;14.63
60936;BMP280;46804;51.786;19.520;2023-08-07T19:57:55;157952.31;;;14.69
60936;BMP280;46804;51.786;19.520;2023-08-07T20:01:56;157960.03;;;14.72
60936;BMP280;46804;51.786;19.520;2023-08-07T20:05:57;157939.47;;;14.64
60936;BMP280;46804;51.786;19.520;2023-08-07T20:09:58;157944.63;;;14.66
60936;BMP280;46804;51.786;19.520;2023-08-07T20:13:58;157945.88;;;14.66
60936;BMP280;46804;51.786;19.520;2023-08-07T20:17:59;157932.97;;;14.61
60936;BMP280;46804;51.786;19.520;2023-08-07T20:22:00;157926.56;;;14.59
60936;BMP280;46804;51.786;19.520;2023-08-07T20:26:00;157916.31;;;14.55
60936;BMP280;46804;51.786;19.520;2023-08-07T20:30:03;157907.25;;;14.52
60936;BMP280;46804;51.786;19.520;2023-08-07T20:34:04;157891.81;;;14.46
60936;BMP280;46804;51.786;19.520;2023-08-07T20:38:04;157872.53;;;14.38
60936;BMP280;46804;51.786;19.520;2023-08-07T20:42:05;157882.84;;;14.42
60936;BMP280;46804;51.786;19.520;2023-08-07T20:46:06;157859.69;;;14.33
60936;BMP280;46804;51.786;19.520;2023-08-07T20:50:07;157855.78;;;14.32
60936;BMP280;46804;51.786;19.520;2023-08-07T20:54:08;157866.09;;;14.36
60936;BMP280;46804;51.786;19.520;2023-08-07T20:58:08;157858.34;;;14.33
60936;BMP280;46804;51.786;19.520;2023-08-07T21:02:10;157858.34;;;14.33
60936;BMP280;46804;51.786;19.520;2023-08-07T21:06:11;157840.34;;;14.26
60936;BMP280;46804;51.786;19.520;2023-08-07T21:10:12;157837.78;;;14.25
60936;BMP280;46804;51.786;19.520;2023-08-07T21:14:14;157862.22;;;14.34
60936;BMP280;46804;51.786;19.520;2023-08-07T21:18:15;157857.06;;;14.32
60936;BMP280;46804;51.786;19.520;2023-08-07T21:22:15;157869.94;;;14.37
60936;BMP280;46804;51.786;19.520;2023-08-07T21:26:18;157875.09;;;14.39
60936;BMP280;46804;51.786;19.520;2023-08-07T21:30:27;157880.22;;;14.41
60936;BMP280;46804;51.786;19.520;2023-08-07T21:34:28;157893.09;;;14.46
60936;BMP280;46804;51.786;19.520;2023-08-07T21:38:29;157900.84;;;14.49
60936;BMP280;46804;51.786;19.520;2023-08-07T21:42:30;157909.81;;;14.53
60936;BMP280;46804;51.786;19.520;2023-08-07T21:46:31;157930.44;;;14.60
60936;BMP280;46804;51.786;19.520;2023-08-07T21:50:31;157944.63;;;14.66
60936;BMP280;46804;51.786;19.520;2023-08-07T21:54:32;157951.03;;;14.68
60936;BMP280;46804;51.786;19.520;2023-08-07T21:58:33;157957.47;;;14.71
60936;BMP280;46804;51.786;19.520;2023-08-07T22:02:33;157957.47;;;14.71
60936;BMP280;46804;51.786;19.520;2023-08-07T22:06:35;157957.47;;;14.71
60936;BMP280;46804;51.786;19.520;2023-08-07T22:10:35;157953.59;;;14.69
60936;BMP280;46804;51.786;19.520;2023-08-07T22:14:38;157936.88;;;14.63
60936;BMP280;46804;51.786;19.520;2023-08-07T22:18:39;157934.31;;;14.62
60936;BMP280;46804;51.786;19.520;2023-08-07T22:22:40;157918.84;;;14.56
60936;BMP280;46804;51.786;19.520;2023-08-07T22:26:41;157904.72;;;14.51
60936;BMP280;46804;51.786;19.520;2023-08-07T22:30:42;157872.53;;;14.38
60936;BMP280;46804;51.786;19.520;2023-08-07T22:34:42;157853.19;;;14.31
60936;BMP280;46804;51.786;19.520;2023-08-07T22:38:43;157830.03;;;14.22